Details From TNCM - St Maarten - Princess Juliana Intl
To TIST - St Thomas - Cyril E King
Flight Number -
Tags generated
Created
Modified
Stats Distance 108 nm / 200 km
Max Altitude 10,500 ft / 3,200 m
Waypoints 3
Social Downloads 15
Likes 0
Share

Download

Looking for another format? Having issues loading an existing format? Contact us
Advertisement - Login to hide

Notes

Basic altitude profile: - Ascent Rate: 10000ft/min - Ascent Speed: 250kts - Cruise Altitude: 150ft - Cruise Speed: 420kts - Descent Rate: 2000ft/min - Descent Speed: 250kts Options: - Use NATs: yes - Use PACOTS: yes - Use low airways: yes - Use high airways: yes

Route

TNCM JUICE TIST

ID Type Via Altitude (ft/m) Position (lat/lon) Dist (leg/tot) Name
O TNCM APT - 0 / 0 18.04089 / -63.10897 - / 0 nm St Maarten - Princess Juliana Intl
JUICE FIX - 10,500 / 3,200 18.13094 / -63.66667 32 / 32 nm
O TIST APT - 0 / 0 18.33730 / -64.97334 75 / 107 nm St Thomas - Cyril E King

Altitude Profile

Advertisement - Login to hide

TNCM

Details ICAO TNCM (SXM)
Name Princess Juliana Intl
Region Caribbean Netherlands, Aruba, Curaçao, Sint Maarten
Timezone Unknown
Stats Elevation 14 ft / 4 m (AMSL)
Location 18.040900° -63.108900°
Runways 1
Magnetic Variation 14.447° W

METAR

TNCM 271400Z 08012KT 9999 SCT020 29/21 Q1020

Decode

TAF

TAF TNCM 271005Z 2712/2812 07009KT 9999 SCT018

Decode

Departure Runways

ID Width Length Bearing (true/mag) Surface Threshold Overrun Markings Lighting
10 148 ft / 45 m 7,553 ft / 2,302 m 81.44° / 95.89° ASPHALT 331 ft / 101 m 164 ft / 50 m PREC-APP EDGE THRESHOLD REIL-OMNI
28 148 ft / 45 m 7,553 ft / 2,302 m 261.45° / 275.89° ASPHALT 0 ft / 0 m 200 ft / 61 m APP EDGE THRESHOLD

TIST

Details ICAO TIST (STT)
Name St Thomas - Cyril E King
Region USA (U.S. Virgin Islands)
Timezone Unknown
Stats Elevation 22 ft / 7 m (AMSL)
Location 18.337300° -64.973300°
Runways 1
Magnetic Variation 13.810° W

METAR

TIST 271353Z 11009KT 10SM SCT034 BKN045 29/21 A3006

Decode

TAF

TAF TIST 271200Z 2712/2812 08006KT P6SM FEW028 SCT050 FM271400 12015KT P6SM SCT030 FM272230 08007KT P6SM FEW025 SCT050

Decode

Destination Runways

ID Width Length Bearing (true/mag) Surface Threshold Overrun Markings Lighting
10 151 ft / 46 m 6,992 ft / 2,131 m 87.44° / 101.25° ASPHALT 0 ft / 0 m 200 ft / 61 m PREC-APP EDGE THRESHOLD REIL-OMNI
28 151 ft / 46 m 6,992 ft / 2,131 m 267.44° / 281.25° ASPHALT 2,300 ft / 701 m 200 ft / 61 m APP EDGE THRESHOLD

Approach Navaids

Runway Type Ident Frequency Range Bearing (true/mag) Slope Elevation
10 DME ITMN 110.10 MHz 18 nm / 33 km - - 22 ft / 7 m (AMSL)
10 LOC-ILS ITMN 110.10 MHz 18 nm / 33 km 87.45° / 101.26 ° - 15 ft / 5 m (AMSL)
10 GS ITMN 110.10 MHz 10 nm / 19 km 87.88° / 101.69 ° 3.00° 18 ft / 5 m (AMSL)

Popular Alternatives